Aviation Digital Data Service (ADDS)

Output produced by METARs form (1923 UTC 09 December 2019)
found at http://aviationweather.gov/metar/data/
 
METAR text: KLVK 091919Z 23005KT 3SM BR OVC002 10/09 A3021 RMK AO2 T01000094
Conditions at: KLVK (LIVERMORE , CA, US) observed 1919 UTC 09 December 2019
Temperature: 10.0°C (50°F)
Dewpoint: 9.4°C (49°F) [RH = 96%]
Pressure (altimeter): 30.21 inches Hg (1023.1 mb)
Winds: from the SW (230 degrees) at 6 MPH (5 knots; 2.6 m/s)
Visibility: 3 miles ( 5 km)
Ceiling: 200 feet AGL
Clouds: overcast cloud deck at 200 feet AGL
Weather: BR  (mist)

METAR text: KLVK 091912Z 00000KT 1 1/2SM BR OVC002 09/09 A3021 RMK AO2 T00940094
Conditions at: KLVK (LIVERMORE , CA, US) observed 1912 UTC 09 December 2019
Temperature: 9.4°C (49°F)
Dewpoint: 9.4°C (49°F) [RH = 100%]
Pressure (altimeter): 30.21 inches Hg (1023.1 mb)
Winds: calm
Visibility: 1.50 miles (2.41 km)
Ceiling: 200 feet AGL
Clouds: overcast cloud deck at 200 feet AGL
Weather: BR  (mist)

METAR text: KLVK 091853Z 00000KT 1/2SM FG OVC002 09/09 A3022 RMK AO2 SLP231 T00940094
Conditions at: KLVK (LIVERMORE , CA, US) observed 1853 UTC 09 December 2019
Temperature: 9.4°C (49°F)
Dewpoint: 9.4°C (49°F) [RH = 100%]
Pressure (altimeter): 30.22 inches Hg (1023.5 mb)
[Sea-level pressure: 1023.1 mb]
Winds: calm
Visibility: 0.50 miles (0.80 km)
Ceiling: 200 feet AGL
Clouds: overcast cloud deck at 200 feet AGL
Weather: FG  (fog)

METAR text: KLVK 091843Z 00000KT 1/2SM FG VV002 09/09 A3022 RMK AO2 T00890089
Conditions at: KLVK (LIVERMORE , CA, US) observed 1843 UTC 09 December 2019
Temperature: 8.9°C (48°F)
Dewpoint: 8.9°C (48°F) [RH = 100%]
Pressure (altimeter): 30.22 inches Hg (1023.5 mb)
Winds: calm
Visibility: 0.50 miles (0.80 km)
Ceiling: indefinite ceiling with vertical visibility of 200 feet AGL
Clouds: obscured sky
Weather: FG  (fog)

METAR text: KLVK 091753Z 00000KT 1/4SM FG VV002 08/08 A3021 RMK AO2 SLP230 T00830083 10083 20072 51015
Conditions at: KLVK (LIVERMORE , CA, US) observed 1753 UTC 09 December 2019
Temperature: 8.3°C (47°F)
Dewpoint: 8.3°C (47°F) [RH = 100%]
Pressure (altimeter): 30.21 inches Hg (1023.1 mb)
[Sea-level pressure: 1023.0 mb]
Winds: calm
Visibility: 0.25 miles (0.40 km)
Ceiling: indefinite ceiling with vertical visibility of 200 feet AGL
Clouds: obscured sky
Weather: FG  (fog)

METAR text: KLVK 091653Z 08003KT 1/4SM FG VV002 08/08 A3020 RMK AO2 SLP225 T00780078
Conditions at: KLVK (LIVERMORE , CA, US) observed 1653 UTC 09 December 2019
Temperature: 7.8°C (46°F)
Dewpoint: 7.8°C (46°F) [RH = 100%]
Pressure (altimeter): 30.20 inches Hg (1022.8 mb)
[Sea-level pressure: 1022.5 mb]
Winds: from the E (80 degrees) at 3 MPH (3 knots; 1.5 m/s)
Visibility: 0.25 miles (0.40 km)
Ceiling: indefinite ceiling with vertical visibility of 200 feet AGL
Clouds: obscured sky
Weather: FG  (fog)

METAR text: KLVK 091553Z 00000KT M1/4SM FG VV002 08/08 A3018 RMK AO2 SLP220 T00780078
Conditions at: KLVK (LIVERMORE , CA, US) observed 1553 UTC 09 December 2019
Temperature: 7.8°C (46°F)
Dewpoint: 7.8°C (46°F) [RH = 100%]
Pressure (altimeter): 30.18 inches Hg (1022.1 mb)
[Sea-level pressure: 1022.0 mb]
Winds: calm
Visibility: 0.25 miles (0.40 km)
Ceiling: indefinite ceiling with vertical visibility of 200 feet AGL
Clouds: obscured sky
Weather: FG  (fog)

METAR text: KLVK 091453Z 00000KT 1/4SM FG VV002 08/08 A3017 RMK AO2 SLP215 T00780078 53015
Conditions at: KLVK (LIVERMORE , CA, US) observed 1453 UTC 09 December 2019
Temperature: 7.8°C (46°F)
Dewpoint: 7.8°C (46°F) [RH = 100%]
Pressure (altimeter): 30.17 inches Hg (1021.8 mb)
[Sea-level pressure: 1021.5 mb]
Winds: calm
Visibility: 0.25 miles (0.40 km)
Ceiling: indefinite ceiling with vertical visibility of 200 feet AGL
Clouds: obscured sky
Weather: FG  (fog)

METAR text: KLVK 091353Z AUTO 00000KT M1/4SM FG VV002 08/08 A3016 RMK AO2 SLP211 T00780078
Conditions at: KLVK (LIVERMORE , CA, US) observed 1353 UTC 09 December 2019
Temperature: 7.8°C (46°F)
Dewpoint: 7.8°C (46°F) [RH = 100%]
Pressure (altimeter): 30.16 inches Hg (1021.4 mb)
[Sea-level pressure: 1021.1 mb]
Winds: calm
Visibility: 0.25 miles (0.40 km)
Ceiling: indefinite ceiling with vertical visibility of 200 feet AGL
Clouds: obscured sky
Weather: FG  (fog)

METAR text: KLVK 091253Z AUTO 25003KT M1/4SM FG VV002 08/07 A3013 RMK AO2 SLP203 T00780072
Conditions at: KLVK (LIVERMORE , CA, US) observed 1253 UTC 09 December 2019
Temperature: 7.8°C (46°F)
Dewpoint: 7.2°C (45°F) [RH = 96%]
Pressure (altimeter): 30.13 inches Hg (1020.4 mb)
[Sea-level pressure: 1020.3 mb]
Winds: from the WSW (250 degrees) at 3 MPH (3 knots; 1.5 m/s)
Visibility: 0.25 miles (0.40 km)
Ceiling: indefinite ceiling with vertical visibility of 200 feet AGL
Clouds: obscured sky
Weather: FG  (fog)

METAR text: KLVK 091153Z AUTO 00000KT 1/4SM FG VV002 08/07 A3012 RMK AO2 SLP200 70003 T00780072 10100 20067 53002
Conditions at: KLVK (LIVERMORE , CA, US) observed 1153 UTC 09 December 2019
Temperature: 7.8°C (46°F)
Dewpoint: 7.2°C (45°F) [RH = 96%]
Pressure (altimeter): 30.12 inches Hg (1020.1 mb)
[Sea-level pressure: 1020.0 mb]
Winds: calm
Visibility: 0.25 miles (0.40 km)
Ceiling: indefinite ceiling with vertical visibility of 200 feet AGL
Clouds: obscured sky
Weather: FG  (fog)

Forecast for: KLVK (LIVERMORE , CA, US)
Text: KLVK 091742Z 0918/1018 08003KT 1/4SM FG VV002
Forecast period: 1800 to 2000 UTC 09 December 2019
Forecast type: FROM: standard forecast or significant change
Winds: from the E (80 degrees) at 3 MPH (3 knots; 1.5 m/s)
Visibility: 0.25 miles (0.40 km)
Ceiling: indefinite ceiling with vertical visibility of 200 feet AGL
Clouds: obscured sky
Weather: FG  (fog)
Text: TEMPO 0918/0920 1/2SM FG OVC002
Forecast period: 1800 to 2000 UTC 09 December 2019
Forecast type: TEMPORARY: The following changes expected for less than half the time period
Visibility: 0.50 miles (0.80 km)
Ceiling: 200 feet AGL
Clouds: overcast cloud deck at 200 feet AGL
Weather: FG  (fog)
Text: FM092000 30005KT P6SM SKC
Forecast period: 2000 UTC 09 December 2019 to 0400 UTC 10 December 2019
Forecast type: FROM: standard forecast or significant change
Winds: from the WNW (300 degrees) at 6 MPH (5 knots; 2.6 m/s)
Visibility: 6 or more miles 10+ km)
Clouds: clear skies
Weather: no significant weather forecast for this period
Text: FM100400 VRB04KT P6SM FEW010
Forecast period: 0400 to 0800 UTC 10 December 2019
Forecast type: FROM: standard forecast or significant change
Winds: variable direction winds at 5 MPH (4 knots; 2.1 m/s)
Visibility: 6 or more miles 10+ km)
Ceiling: at least 12,000 feet AGL
Clouds: few clouds at 1000 feet AGL
Weather: no significant weather forecast for this period
Text: FM100800 VRB03KT 1SM BR SCT002
Forecast period: 0800 to 1300 UTC 10 December 2019
Forecast type: FROM: standard forecast or significant change
Winds: variable direction winds at 3 MPH (3 knots; 1.5 m/s)
Visibility: 1.00 miles (1.61 km)
Ceiling: at least 12,000 feet AGL
Clouds: scattered clouds at 200 feet AGL
Weather: BR  (mist)
Text: TEMPO 1009/1013 1/4SM FG VV002
Forecast period: 0900 to 1300 UTC 10 December 2019
Forecast type: TEMPORARY: The following changes expected for less than half the time period
Visibility: 0.25 miles (0.40 km)
Ceiling: indefinite ceiling with vertical visibility of 200 feet AGL
Clouds: obscured sky
Weather: FG  (fog)
Text: FM101300 VRB03KT 1/4SM FG VV002
Forecast period: 1300 to 1800 UTC 10 December 2019
Forecast type: FROM: standard forecast or significant change
Winds: variable direction winds at 3 MPH (3 knots; 1.5 m/s)
Visibility: 0.25 miles (0.40 km)
Ceiling: indefinite ceiling with vertical visibility of 200 feet AGL
Clouds: obscured sky
Weather: FG  (fog)